sensor_id;sensor_type;location;lat;lon;timestamp;pressure;altitude;pressure_sealevel;temperature;humidity
16580;BME280;8402;51.466;6.806;2023-07-13T00:01:25;101144.59;;;20.84;55.22
16580;BME280;8402;51.466;6.806;2023-07-13T00:03:55;101152.06;;;20.84;55.38
16580;BME280;8402;51.466;6.806;2023-07-13T00:06:26;101161.09;;;20.81;55.53
16580;BME280;8402;51.466;6.806;2023-07-13T00:08:57;101149.69;;;20.82;55.66
16580;BME280;8402;51.466;6.806;2023-07-13T00:11:29;101154.91;;;20.91;55.65
16580;BME280;8402;51.466;6.806;2023-07-13T00:13:59;101147.50;;;20.95;55.06
16580;BME280;8402;51.466;6.806;2023-07-13T00:16:29;101151.44;;;20.94;55.25
16580;BME280;8402;51.466;6.806;2023-07-13T00:18:59;101147.81;;;20.90;55.18
16580;BME280;8402;51.466;6.806;2023-07-13T00:21:29;101148.50;;;20.83;55.21
16580;BME280;8402;51.466;6.806;2023-07-13T00:24:00;101146.13;;;20.82;55.90
16580;BME280;8402;51.466;6.806;2023-07-13T00:26:32;101147.94;;;20.71;55.83
16580;BME280;8402;51.466;6.806;2023-07-13T00:29:03;101153.34;;;20.64;55.83
16580;BME280;8402;51.466;6.806;2023-07-13T00:31:33;101156.88;;;20.60;56.02
16580;BME280;8402;51.466;6.806;2023-07-13T00:34:03;101157.19;;;20.55;56.34
16580;BME280;8402;51.466;6.806;2023-07-13T00:36:33;101152.34;;;20.49;56.39
16580;BME280;8402;51.466;6.806;2023-07-13T00:39:03;101144.88;;;20.49;56.32
16580;BME280;8402;51.466;6.806;2023-07-13T00:41:35;101149.44;;;20.38;56.49
16580;BME280;8402;51.466;6.806;2023-07-13T00:44:09;101155.25;;;20.33;56.97
16580;BME280;8402;51.466;6.806;2023-07-13T00:46:43;101167.38;;;20.28;56.98
16580;BME280;8402;51.466;6.806;2023-07-13T00:49:15;101154.72;;;20.24;57.46
16580;BME280;8402;51.466;6.806;2023-07-13T00:51:50;101147.50;;;20.16;56.85
16580;BME280;8402;51.466;6.806;2023-07-13T00:54:24;101151.44;;;20.15;57.34
16580;BME280;8402;51.466;6.806;2023-07-13T00:57:02;101158.06;;;20.14;57.59
16580;BME280;8402;51.466;6.806;2023-07-13T00:59:34;101152.34;;;20.22;57.64
16580;BME280;8402;51.466;6.806;2023-07-13T01:02:05;101151.88;;;20.20;57.67
16580;BME280;8402;51.466;6.806;2023-07-13T01:04:35;101149.69;;;20.06;57.82
16580;BME280;8402;51.466;6.806;2023-07-13T01:07:06;101150.03;;;20.01;57.83
16580;BME280;8402;51.466;6.806;2023-07-13T01:09:36;101148.75;;;19.95;58.40
16580;BME280;8402;51.466;6.806;2023-07-13T01:12:10;101154.25;;;19.95;58.52
16580;BME280;8402;51.466;6.806;2023-07-13T01:14:40;101151.91;;;19.97;57.83
16580;BME280;8402;51.466;6.806;2023-07-13T01:17:11;101147.69;;;20.03;57.81
16580;BME280;8402;51.466;6.806;2023-07-13T01:19:44;101162.81;;;19.90;58.50
16580;BME280;8402;51.466;6.806;2023-07-13T01:22:18;101160.34;;;19.85;58.71
16580;BME280;8402;51.466;6.806;2023-07-13T01:24:54;101158.75;;;19.84;58.75
16580;BME280;8402;51.466;6.806;2023-07-13T01:27:25;101151.13;;;19.74;59.01
16580;BME280;8402;51.466;6.806;2023-07-13T01:29:55;101149.88;;;19.71;59.24
16580;BME280;8402;51.466;6.806;2023-07-13T01:32:29;101153.66;;;19.63;59.57
16580;BME280;8402;51.466;6.806;2023-07-13T01:34:59;101162.13;;;19.55;59.54
16580;BME280;8402;51.466;6.806;2023-07-13T01:37:32;101156.56;;;19.51;60.23
16580;BME280;8402;51.466;6.806;2023-07-13T01:40:03;101159.66;;;19.49;60.23
16580;BME280;8402;51.466;6.806;2023-07-13T01:42:35;101152.56;;;19.48;59.89
16580;BME280;8402;51.466;6.806;2023-07-13T01:45:06;101160.31;;;19.43;61.00
16580;BME280;8402;51.466;6.806;2023-07-13T01:47:36;101155.66;;;19.43;60.54
16580;BME280;8402;51.466;6.806;2023-07-13T01:50:06;101158.03;;;19.45;60.89
16580;BME280;8402;51.466;6.806;2023-07-13T01:52:39;101161.28;;;19.50;60.78
16580;BME280;8402;51.466;6.806;2023-07-13T01:55:08;101159.66;;;19.49;60.90
16580;BME280;8402;51.466;6.806;2023-07-13T01:57:38;101162.88;;;19.51;61.04
16580;BME280;8402;51.466;6.806;2023-07-13T02:00:10;101167.25;;;19.56;60.84
16580;BME280;8402;51.466;6.806;2023-07-13T02:02:40;101166.13;;;19.57;61.45
16580;BME280;8402;51.466;6.806;2023-07-13T02:05:12;101164.84;;;19.51;61.20
16580;BME280;8402;51.466;6.806;2023-07-13T02:07:45;101169.81;;;19.45;62.00
16580;BME280;8402;51.466;6.806;2023-07-13T02:10:16;101172.94;;;19.44;61.35
16580;BME280;8402;51.466;6.806;2023-07-13T02:12:48;101167.00;;;19.42;61.67
16580;BME280;8402;51.466;6.806;2023-07-13T02:15:18;101167.38;;;19.40;61.88
16580;BME280;8402;51.466;6.806;2023-07-13T02:17:48;101167.78;;;19.42;62.11
16580;BME280;8402;51.466;6.806;2023-07-13T02:20:18;101167.00;;;19.42;61.56
16580;BME280;8402;51.466;6.806;2023-07-13T02:22:50;101167.50;;;19.47;61.90
16580;BME280;8402;51.466;6.806;2023-07-13T02:25:20;101163.72;;;19.56;61.71
16580;BME280;8402;51.466;6.806;2023-07-13T02:27:52;101169.75;;;19.61;61.26
16580;BME280;8402;51.466;6.806;2023-07-13T02:30:21;101173.56;;;19.57;61.21
16580;BME280;8402;51.466;6.806;2023-07-13T02:32:51;101176.19;;;19.49;61.25
16580;BME280;8402;51.466;6.806;2023-07-13T02:35:22;101172.59;;;19.45;61.57
16580;BME280;8402;51.466;6.806;2023-07-13T02:37:54;101172.06;;;19.40;62.07
16580;BME280;8402;51.466;6.806;2023-07-13T02:40:24;101181.50;;;19.39;61.26
16580;BME280;8402;51.466;6.806;2023-07-13T02:42:56;101181.72;;;19.30;61.76
16580;BME280;8402;51.466;6.806;2023-07-13T02:45:26;101182.75;;;19.22;62.05
16580;BME280;8402;51.466;6.806;2023-07-13T02:47:56;101176.78;;;19.20;62.50
16580;BME280;8402;51.466;6.806;2023-07-13T02:50:26;101177.94;;;19.19;62.78
16580;BME280;8402;51.466;6.806;2023-07-13T02:52:58;101179.53;;;19.20;62.75
16580;BME280;8402;51.466;6.806;2023-07-13T02:55:28;101174.41;;;19.18;62.82
16580;BME280;8402;51.466;6.806;2023-07-13T02:57:58;101176.72;;;19.16;63.01
16580;BME280;8402;51.466;6.806;2023-07-13T03:00:28;101183.28;;;19.12;63.06
16580;BME280;8402;51.466;6.806;2023-07-13T03:02:58;101187.94;;;19.08;62.90
16580;BME280;8402;51.466;6.806;2023-07-13T03:05:28;101178.38;;;19.02;63.07
16580;BME280;8402;51.466;6.806;2023-07-13T03:08:01;101185.38;;;18.99;63.56
16580;BME280;8402;51.466;6.806;2023-07-13T03:10:30;101180.50;;;18.92;64.26
16580;BME280;8402;51.466;6.806;2023-07-13T03:13:01;101182.84;;;18.90;63.88
16580;BME280;8402;51.466;6.806;2023-07-13T03:15:31;101183.91;;;18.86;63.99
16580;BME280;8402;51.466;6.806;2023-07-13T03:18:01;101187.75;;;18.81;64.24
16580;BME280;8402;51.466;6.806;2023-07-13T03:20:32;101179.50;;;18.81;64.73
16580;BME280;8402;51.466;6.806;2023-07-13T03:23:05;101186.50;;;18.79;64.76
16580;BME280;8402;51.466;6.806;2023-07-13T03:25:35;101193.25;;;18.81;64.48
16580;BME280;8402;51.466;6.806;2023-07-13T03:28:05;101198.03;;;18.84;64.42
16580;BME280;8402;51.466;6.806;2023-07-13T03:30:35;101198.03;;;18.84;64.40
16580;BME280;8402;51.466;6.806;2023-07-13T03:33:05;101198.38;;;18.83;64.32
16580;BME280;8402;51.466;6.806;2023-07-13T03:35:35;101203.50;;;18.84;64.62
16580;BME280;8402;51.466;6.806;2023-07-13T03:38:08;101201.94;;;18.83;65.00
16580;BME280;8402;51.466;6.806;2023-07-13T03:40:38;101196.44;;;18.83;65.04
16580;BME280;8402;51.466;6.806;2023-07-13T03:43:08;101206.00;;;18.89;64.56
16580;BME280;8402;51.466;6.806;2023-07-13T03:45:38;101208.75;;;18.89;65.00
16580;BME280;8402;51.466;6.806;2023-07-13T03:48:08;101215.56;;;18.95;65.42
16580;BME280;8402;51.466;6.806;2023-07-13T03:50:38;101215.19;;;18.97;65.24
16580;BME280;8402;51.466;6.806;2023-07-13T03:53:10;101213.66;;;19.00;65.16
16580;BME280;8402;51.466;6.806;2023-07-13T03:55:40;101222.44;;;19.05;64.97
16580;BME280;8402;51.466;6.806;2023-07-13T03:58:26;101211.38;;;19.02;66.06
16580;BME280;8402;51.466;6.806;2023-07-13T04:00:58;101220.94;;;19.08;65.05
16580;BME280;8402;51.466;6.806;2023-07-13T04:03:30;101215.44;;;19.08;65.60
16580;BME280;8402;51.466;6.806;2023-07-13T04:06:00;101217.72;;;19.06;66.05
16580;BME280;8402;51.466;6.806;2023-07-13T04:08:34;101226.44;;;19.08;66.24
16580;BME280;8402;51.466;6.806;2023-07-13T04:11:05;101222.38;;;19.02;66.66
16580;BME280;8402;51.466;6.806;2023-07-13T04:13:35;101233.66;;;18.96;67.48
16580;BME280;8402;51.466;6.806;2023-07-13T04:16:04;101237.56;;;18.95;66.49
16580;BME280;8402;51.466;6.806;2023-07-13T04:18:35;101239.94;;;18.97;66.90
16580;BME280;8402;51.466;6.806;2023-07-13T04:21:05;101241.91;;;18.96;67.37
16580;BME280;8402;51.466;6.806;2023-07-13T04:23:38;101249.00;;;18.97;67.63
16580;BME280;8402;51.466;6.806;2023-07-13T04:26:08;101257.66;;;19.00;67.21
16580;BME280;8402;51.466;6.806;2023-07-13T04:28:39;101247.56;;;19.04;67.16
16580;BME280;8402;51.466;6.806;2023-07-13T04:31:09;101243.59;;;19.01;67.62
16580;BME280;8402;51.466;6.806;2023-07-13T04:33:39;101238.56;;;18.87;68.66
16580;BME280;8402;51.466;6.806;2023-07-13T04:36:10;101244.31;;;18.82;69.57
16580;BME280;8402;51.466;6.806;2023-07-13T04:38:43;101241.66;;;18.86;68.51
16580;BME280;8402;51.466;6.806;2023-07-13T04:41:15;101247.41;;;18.96;68.30
16580;BME280;8402;51.466;6.806;2023-07-13T04:43:46;101245.88;;;18.99;68.36
16580;BME280;8402;51.466;6.806;2023-07-13T04:46:16;101253.06;;;19.04;68.18
16580;BME280;8402;51.466;6.806;2023-07-13T04:48:50;101245.81;;;18.95;68.81
16580;BME280;8402;51.466;6.806;2023-07-13T04:51:21;101246.66;;;19.00;68.65
16580;BME280;8402;51.466;6.806;2023-07-13T04:53:53;101246.66;;;19.00;69.32
16580;BME280;8402;51.466;6.806;2023-07-13T04:56:27;101248.94;;;18.94;69.34
16580;BME280;8402;51.466;6.806;2023-07-13T04:58:57;101247.75;;;18.95;69.14
16580;BME280;8402;51.466;6.806;2023-07-13T05:01:27;101252.91;;;18.96;69.39
16580;BME280;8402;51.466;6.806;2023-07-13T05:03:57;101246.66;;;19.00;69.25
16580;BME280;8402;51.466;6.806;2023-07-13T05:06:28;101252.91;;;18.96;69.71
16580;BME280;8402;51.466;6.806;2023-07-13T05:09:00;101260.72;;;18.94;70.45
16580;BME280;8402;51.466;6.806;2023-07-13T05:11:30;101255.06;;;18.87;71.18
16580;BME280;8402;51.466;6.806;2023-07-13T05:14:00;101258.06;;;18.82;72.02
16580;BME280;8402;51.466;6.806;2023-07-13T05:16:30;101259.66;;;18.83;71.43
16580;BME280;8402;51.466;6.806;2023-07-13T05:19:01;101257.44;;;18.89;71.36
16580;BME280;8402;51.466;6.806;2023-07-13T05:21:31;101265.06;;;18.95;71.29
16580;BME280;8402;51.466;6.806;2023-07-13T05:24:04;101261.16;;;18.96;72.01
16580;BME280;8402;51.466;6.806;2023-07-13T05:26:50;101265.59;;;19.01;71.10
16580;BME280;8402;51.466;6.806;2023-07-13T05:29:20;101279.03;;;19.06;71.12
16580;BME280;8402;51.466;6.806;2023-07-13T05:31:50;101279.56;;;19.12;71.29
16580;BME280;8402;51.466;6.806;2023-07-13T05:34:20;101276.13;;;19.15;71.67
16580;BME280;8402;51.466;6.806;2023-07-13T05:36:50;101286.97;;;19.08;72.38
16580;BME280;8402;51.466;6.806;2023-07-13T05:39:23;101286.97;;;19.08;72.37
16580;BME280;8402;51.466;6.806;2023-07-13T05:41:54;101292.28;;;19.01;72.55
16580;BME280;8402;51.466;6.806;2023-07-13T05:44:24;101289.25;;;19.06;72.39
16580;BME280;8402;51.466;6.806;2023-07-13T05:46:54;101287.97;;;19.19;72.02
16580;BME280;8402;51.466;6.806;2023-07-13T05:49:24;101294.53;;;19.30;71.83
16580;BME280;8402;51.466;6.806;2023-07-13T05:51:54;101307.13;;;19.31;72.35
16580;BME280;8402;51.466;6.806;2023-07-13T05:54:27;101301.34;;;19.36;72.33
16580;BME280;8402;51.466;6.806;2023-07-13T05:56:57;101309.75;;;19.43;71.72
16580;BME280;8402;51.466;6.806;2023-07-13T05:59:27;101302.63;;;19.58;71.30
16580;BME280;8402;51.466;6.806;2023-07-13T06:01:57;101307.47;;;19.65;71.53
16580;BME280;8402;51.466;6.806;2023-07-13T06:04:27;101310.66;;;19.67;71.34
16580;BME280;8402;51.466;6.806;2023-07-13T06:06:57;101311.25;;;19.76;71.53
16580;BME280;8402;51.466;6.806;2023-07-13T06:09:29;101321.22;;;19.84;71.21
16580;BME280;8402;51.466;6.806;2023-07-13T06:11:59;101313.72;;;20.00;70.80
16580;BME280;8402;51.466;6.806;2023-07-13T06:14:29;101313.97;;;20.15;70.48
16580;BME280;8402;51.466;6.806;2023-07-13T06:16:59;101317.78;;;20.29;70.36
16580;BME280;8402;51.466;6.806;2023-07-13T06:19:29;101320.59;;;20.33;70.04
16580;BME280;8402;51.466;6.806;2023-07-13T06:21:59;101319.56;;;20.41;70.05
16580;BME280;8402;51.466;6.806;2023-07-13T06:24:31;101325.19;;;20.45;69.54
16580;BME280;8402;51.466;6.806;2023-07-13T06:27:01;101322.91;;;20.50;69.82
16580;BME280;8402;51.466;6.806;2023-07-13T06:29:31;101326.41;;;20.47;69.71
16580;BME280;8402;51.466;6.806;2023-07-13T06:32:01;101333.06;;;20.46;69.86
16580;BME280;8402;51.466;6.806;2023-07-13T06:34:31;101331.53;;;20.49;69.76
16580;BME280;8402;51.466;6.806;2023-07-13T06:37:01;101335.53;;;20.51;70.08
16580;BME280;8402;51.466;6.806;2023-07-13T06:39:33;101334.38;;;20.52;69.67
16580;BME280;8402;51.466;6.806;2023-07-13T06:42:04;101336.75;;;20.77;69.63
16580;BME280;8402;51.466;6.806;2023-07-13T06:44:34;101340.16;;;20.93;69.31
16580;BME280;8402;51.466;6.806;2023-07-13T06:47:06;101328.59;;;21.10;69.02
16580;BME280;8402;51.466;6.806;2023-07-13T06:49:36;101335.72;;;21.11;68.88
16580;BME280;8402;51.466;6.806;2023-07-13T06:52:06;101332.44;;;21.02;68.57
16580;BME280;8402;51.466;6.806;2023-07-13T06:54:39;101327.34;;;21.04;69.12
16580;BME280;8402;51.466;6.806;2023-07-13T06:57:09;101334.94;;;21.11;69.12
16580;BME280;8402;51.466;6.806;2023-07-13T06:59:38;101330.19;;;21.11;68.49
16580;BME280;8402;51.466;6.806;2023-07-13T07:02:09;101340.97;;;21.20;68.38
16580;BME280;8402;51.466;6.806;2023-07-13T07:04:40;101350.03;;;21.21;68.85
16580;BME280;8402;51.466;6.806;2023-07-13T07:07:09;101351.59;;;21.18;68.31
16580;BME280;8402;51.466;6.806;2023-07-13T07:09:42;101354.38;;;21.22;68.33
16580;BME280;8402;51.466;6.806;2023-07-13T07:12:12;101350.91;;;21.25;68.75
16580;BME280;8402;51.466;6.806;2023-07-13T07:14:42;101361.22;;;21.28;69.19
16580;BME280;8402;51.466;6.806;2023-07-13T07:17:11;101354.06;;;21.27;68.69
16580;BME280;8402;51.466;6.806;2023-07-13T07:19:41;101352.94;;;21.28;69.22
16580;BME280;8402;51.466;6.806;2023-07-13T07:22:11;101358.94;;;21.33;68.81
16580;BME280;8402;51.466;6.806;2023-07-13T07:24:44;101354.41;;;21.48;68.11
16580;BME280;8402;51.466;6.806;2023-07-13T07:27:14;101363.22;;;21.57;67.95
16580;BME280;8402;51.466;6.806;2023-07-13T07:29:47;101358.97;;;21.63;67.71
16580;BME280;8402;51.466;6.806;2023-07-13T07:32:37;101361.81;;;21.70;67.68
16580;BME280;8402;51.466;6.806;2023-07-13T07:35:09;101353.53;;;21.70;68.02
16580;BME280;8402;51.466;6.806;2023-07-13T07:37:39;101365.09;;;21.80;67.29
16580;BME280;8402;51.466;6.806;2023-07-13T07:40:15;101364.50;;;21.93;67.84
16580;BME280;8402;51.466;6.806;2023-07-13T07:42:48;101363.53;;;22.12;66.78
16580;BME280;8402;51.466;6.806;2023-07-13T07:45:17;101365.00;;;22.06;65.45
16580;BME280;8402;51.466;6.806;2023-07-13T07:47:48;101358.84;;;22.16;65.79
16580;BME280;8402;51.466;6.806;2023-07-13T07:50:18;101361.78;;;22.31;65.79
16580;BME280;8402;51.466;6.806;2023-07-13T07:52:47;101364.25;;;22.43;65.61
16580;BME280;8402;51.466;6.806;2023-07-13T07:55:20;101360.25;;;22.37;64.76
16580;BME280;8402;51.466;6.806;2023-07-13T07:57:53;101360.22;;;22.33;64.79
16580;BME280;8402;51.466;6.806;2023-07-13T08:00:26;101362.78;;;22.52;64.53
16580;BME280;8402;51.466;6.806;2023-07-13T08:03:17;101359.06;;;22.78;64.39
16580;BME280;8402;51.466;6.806;2023-07-13T08:05:52;101350.63;;;22.64;63.30
16580;BME280;8402;51.466;6.806;2023-07-13T08:08:42;101363.31;;;22.65;63.88
16580;BME280;8402;51.466;6.806;2023-07-13T08:11:15;101365.38;;;22.75;63.77
16580;BME280;8402;51.466;6.806;2023-07-13T08:13:49;101349.81;;;23.01;63.30
16580;BME280;8402;51.466;6.806;2023-07-13T08:16:21;101348.34;;;23.21;63.12
16580;BME280;8402;51.466;6.806;2023-07-13T08:18:51;101347.28;;;23.37;62.93
16580;BME280;8402;51.466;6.806;2023-07-13T08:21:21;101339.03;;;23.51;62.31
16580;BME280;8402;51.466;6.806;2023-07-13T08:23:51;101344.72;;;23.76;62.43
16580;BME280;8402;51.466;6.806;2023-07-13T08:26:24;101347.63;;;24.08;61.32
16580;BME280;8402;51.466;6.806;2023-07-13T08:28:54;101348.44;;;24.26;61.24
16580;BME280;8402;51.466;6.806;2023-07-13T08:31:23;101351.97;;;24.09;59.05
16580;BME280;8402;51.466;6.806;2023-07-13T08:33:53;101350.31;;;23.86;59.86
16580;BME280;8402;51.466;6.806;2023-07-13T08:36:25;101345.94;;;23.85;60.22
16580;BME280;8402;51.466;6.806;2023-07-13T08:38:55;101346.69;;;23.75;60.41
16580;BME280;8402;51.466;6.806;2023-07-13T08:41:28;101341.47;;;23.63;59.91
16580;BME280;8402;51.466;6.806;2023-07-13T08:43:59;101348.91;;;23.48;60.64
16580;BME280;8402;51.466;6.806;2023-07-13T08:46:34;101357.22;;;23.48;60.61
16580;BME280;8402;51.466;6.806;2023-07-13T08:49:08;101345.47;;;23.69;61.30
16580;BME280;8402;51.466;6.806;2023-07-13T08:51:42;101343.88;;;23.68;60.81
16580;BME280;8402;51.466;6.806;2023-07-13T08:54:22;101342.66;;;23.62;61.05
16580;BME280;8402;51.466;6.806;2023-07-13T08:56:56;101341.50;;;23.70;61.03
16580;BME280;8402;51.466;6.806;2023-07-13T08:59:31;101341.56;;;23.81;60.21
16580;BME280;8402;51.466;6.806;2023-07-13T09:02:17;101343.16;;;23.85;59.63
16580;BME280;8402;51.466;6.806;2023-07-13T09:04:51;101338.88;;;24.02;59.62
16580;BME280;8402;51.466;6.806;2023-07-13T09:07:34;101342.88;;;24.19;59.36
16580;BME280;8402;51.466;6.806;2023-07-13T09:10:14;101336.63;;;24.43;59.28
16580;BME280;8402;51.466;6.806;2023-07-13T09:13:00;101352.47;;;24.57;58.83
16580;BME280;8402;51.466;6.806;2023-07-13T09:15:38;101346.94;;;24.71;58.83
16580;BME280;8402;51.466;6.806;2023-07-13T09:18:14;101352.09;;;24.59;58.03
16580;BME280;8402;51.466;6.806;2023-07-13T09:20:48;101352.88;;;24.84;57.70
16580;BME280;8402;51.466;6.806;2023-07-13T09:23:20;101351.28;;;24.76;57.59
16580;BME280;8402;51.466;6.806;2023-07-13T09:25:53;101364.41;;;24.86;58.31
16580;BME280;8402;51.466;6.806;2023-07-13T09:28:28;101354.06;;;24.97;57.58
16580;BME280;8402;51.466;6.806;2023-07-13T09:31:03;101353.28;;;25.01;57.40
16580;BME280;8402;51.466;6.806;2023-07-13T09:33:34;101353.69;;;25.10;56.80
16580;BME280;8402;51.466;6.806;2023-07-13T09:36:18;101357.22;;;25.35;56.61
16580;BME280;8402;51.466;6.806;2023-07-13T09:38:49;101350.41;;;25.58;55.45
16580;BME280;8402;51.466;6.806;2023-07-13T09:41:29;101352.00;;;25.55;55.35
16580;BME280;8402;51.466;6.806;2023-07-13T09:44:13;101346.84;;;25.53;55.54
16580;BME280;8402;51.466;6.806;2023-07-13T09:46:46;101350.78;;;25.67;56.13
16580;BME280;8402;51.466;6.806;2023-07-13T09:49:16;101342.81;;;25.69;56.29
16580;BME280;8402;51.466;6.806;2023-07-13T09:51:46;101354.00;;;25.47;55.09
16580;BME280;8402;51.466;6.806;2023-07-13T09:54:18;101353.69;;;25.10;55.58
16580;BME280;8402;51.466;6.806;2023-07-13T09:56:54;101339.81;;;25.06;56.31
16580;BME280;8402;51.466;6.806;2023-07-13T09:59:30;101367.19;;;24.93;55.87
16580;BME280;8402;51.466;6.806;2023-07-13T10:02:00;101349.69;;;25.25;56.20
16580;BME280;8402;51.466;6.806;2023-07-13T10:04:33;101357.13;;;25.67;55.57
16580;BME280;8402;51.466;6.806;2023-07-13T10:07:08;101345.88;;;26.03;52.70
16580;BME280;8402;51.466;6.806;2023-07-13T10:09:55;101364.19;;;26.00;53.82
16580;BME280;8402;51.466;6.806;2023-07-13T10:12:29;101355.06;;;25.96;53.06
16580;BME280;8402;51.466;6.806;2023-07-13T10:15:03;101352.06;;;26.32;52.81
16580;BME280;8402;51.466;6.806;2023-07-13T10:17:52;101357.25;;;26.26;51.98
16580;BME280;8402;51.466;6.806;2023-07-13T10:20:26;101361.84;;;25.88;51.82
16580;BME280;8402;51.466;6.806;2023-07-13T10:22:59;101369.41;;;25.81;52.97
16580;BME280;8402;51.466;6.806;2023-07-13T10:25:32;101367.88;;;25.62;53.17
16580;BME280;8402;51.466;6.806;2023-07-13T10:28:06;101368.69;;;25.48;53.29
16580;BME280;8402;51.466;6.806;2023-07-13T10:30:45;101371.09;;;25.28;52.45
16580;BME280;8402;51.466;6.806;2023-07-13T10:33:17;101373.06;;;25.52;53.35
16580;BME280;8402;51.466;6.806;2023-07-13T10:35:47;101360.63;;;25.86;53.70
16580;BME280;8402;51.466;6.806;2023-07-13T10:38:22;101353.84;;;26.01;53.15
16580;BME280;8402;51.466;6.806;2023-07-13T10:40:57;101368.50;;;26.09;52.39
16580;BME280;8402;51.466;6.806;2023-07-13T10:43:31;101366.50;;;26.05;52.08
16580;BME280;8402;51.466;6.806;2023-07-13T10:46:12;101364.44;;;26.24;51.20
16580;BME280;8402;51.466;6.806;2023-07-13T10:48:44;101360.41;;;26.32;50.29
16580;BME280;8402;51.466;6.806;2023-07-13T10:51:18;101359.59;;;26.35;50.99
16580;BME280;8402;51.466;6.806;2023-07-13T10:54:18;101365.69;;;26.16;50.89
16580;BME280;8402;51.466;6.806;2023-07-13T10:56:53;101363.50;;;26.48;51.00
16580;BME280;8402;51.466;6.806;2023-07-13T10:59:36;101356.03;;;26.90;50.62
16580;BME280;8402;51.466;6.806;2023-07-13T11:02:22;101360.69;;;27.00;49.35
16580;BME280;8402;51.466;6.806;2023-07-13T11:04:54;101357.22;;;27.34;49.36
16580;BME280;8402;51.466;6.806;2023-07-13T11:07:27;101366.41;;;27.68;49.75
16580;BME280;8402;51.466;6.806;2023-07-13T11:10:00;101359.09;;;27.82;48.17
16580;BME280;8402;51.466;6.806;2023-07-13T11:12:59;101357.78;;;27.90;47.35
16580;BME280;8402;51.466;6.806;2023-07-13T11:15:43;101362.50;;;27.93;46.85
16580;BME280;8402;51.466;6.806;2023-07-13T11:18:24;101357.22;;;28.02;45.88
16580;BME280;8402;51.466;6.806;2023-07-13T11:21:12;101356.16;;;28.23;46.11
16580;BME280;8402;51.466;6.806;2023-07-13T11:24:03;101353.41;;;28.19;43.91
16580;BME280;8402;51.466;6.806;2023-07-13T11:26:41;101357.03;;;28.16;43.07
16580;BME280;8402;51.466;6.806;2023-07-13T11:29:25;101340.72;;;28.15;43.76
16580;BME280;8402;51.466;6.806;2023-07-13T11:31:57;101338.22;;;28.20;44.11
16580;BME280;8402;51.466;6.806;2023-07-13T11:34:35;101348.13;;;28.25;43.27
16580;BME280;8402;51.466;6.806;2023-07-13T11:37:10;101341.50;;;28.42;44.16
16580;BME280;8402;51.466;6.806;2023-07-13T11:39:43;101338.81;;;28.62;43.90
16580;BME280;8402;51.466;6.806;2023-07-13T11:42:16;101345.50;;;28.68;42.92
16580;BME280;8402;51.466;6.806;2023-07-13T11:44:48;101337.00;;;28.75;44.21
16580;BME280;8402;51.466;6.806;2023-07-13T11:47:40;101334.34;;;28.92;42.78
16580;BME280;8402;51.466;6.806;2023-07-13T11:50:22;101330.50;;;28.82;41.22
16580;BME280;8402;51.466;6.806;2023-07-13T11:52:54;101336.75;;;29.13;41.33
16580;BME280;8402;51.466;6.806;2023-07-13T11:55:24;101323.00;;;29.02;41.09
16580;BME280;8402;51.466;6.806;2023-07-13T11:57:57;101334.13;;;29.26;41.98
16580;BME280;8402;51.466;6.806;2023-07-13T12:00:29;101333.06;;;29.40;40.68
16580;BME280;8402;51.466;6.806;2023-07-13T12:03:03;101330.28;;;29.40;40.49
16580;BME280;8402;51.466;6.806;2023-07-13T12:05:37;101343.50;;;29.59;40.53
16580;BME280;8402;51.466;6.806;2023-07-13T12:08:11;101347.78;;;29.44;40.45
16580;BME280;8402;51.466;6.806;2023-07-13T12:10:56;101325.00;;;29.22;40.37
16580;BME280;8402;51.466;6.806;2023-07-13T12:13:27;101330.47;;;29.29;40.55
16580;BME280;8402;51.466;6.806;2023-07-13T12:15:58;101337.28;;;29.28;39.97
16580;BME280;8402;51.466;6.806;2023-07-13T12:18:30;101331.19;;;29.33;40.62
16580;BME280;8402;51.466;6.806;2023-07-13T12:21:03;101318.50;;;29.28;39.60
16580;BME280;8402;51.466;6.806;2023-07-13T12:23:35;101318.84;;;29.11;39.54
16580;BME280;8402;51.466;6.806;2023-07-13T12:26:06;101324.41;;;28.91;40.08
16580;BME280;8402;51.466;6.806;2023-07-13T12:28:44;101324.50;;;28.84;41.03
16580;BME280;8402;51.466;6.806;2023-07-13T12:31:24;101327.53;;;28.69;40.63
16580;BME280;8402;51.466;6.806;2023-07-13T12:33:59;101337.97;;;28.65;40.43
16580;BME280;8402;51.466;6.806;2023-07-13T12:36:36;101341.69;;;28.28;40.95
16580;BME280;8402;51.466;6.806;2023-07-13T12:39:18;101338.16;;;27.97;41.30
16580;BME280;8402;51.466;6.806;2023-07-13T12:41:49;101333.78;;;27.65;41.18
16580;BME280;8402;51.466;6.806;2023-07-13T12:44:25;101339.63;;;27.40;41.20
16580;BME280;8402;51.466;6.806;2023-07-13T12:46:58;101335.28;;;27.36;42.52
16580;BME280;8402;51.466;6.806;2023-07-13T12:49:33;101352.84;;;27.33;42.47
16580;BME280;8402;51.466;6.806;2023-07-13T12:52:14;101355.09;;;27.07;42.19
16580;BME280;8402;51.466;6.806;2023-07-13T12:54:53;101347.97;;;26.99;42.95
16580;BME280;8402;51.466;6.806;2023-07-13T12:57:32;101344.06;;;26.93;42.63
16580;BME280;8402;51.466;6.806;2023-07-13T13:00:21;101358.50;;;26.77;43.79
16580;BME280;8402;51.466;6.806;2023-07-13T13:02:54;101369.75;;;26.67;43.49
16580;BME280;8402;51.466;6.806;2023-07-13T13:05:44;101378.16;;;26.56;44.74
16580;BME280;8402;51.466;6.806;2023-07-13T13:08:17;101380.25;;;26.41;45.10
16580;BME280;8402;51.466;6.806;2023-07-13T13:10:47;101386.69;;;26.24;45.95
16580;BME280;8402;51.466;6.806;2023-07-13T13:13:16;101379.09;;;26.28;45.65
16580;BME280;8402;51.466;6.806;2023-07-13T13:15:46;101381.47;;;26.37;45.40
16580;BME280;8402;51.466;6.806;2023-07-13T13:18:18;101377.09;;;26.39;45.14
16580;BME280;8402;51.466;6.806;2023-07-13T13:20:49;101374.69;;;26.45;44.96
16580;BME280;8402;51.466;6.806;2023-07-13T13:23:22;101375.38;;;26.59;45.78
16580;BME280;8402;51.466;6.806;2023-07-13T13:25:52;101367.38;;;26.61;44.59
16580;BME280;8402;51.466;6.806;2023-07-13T13:28:22;101361.72;;;26.76;45.20
16580;BME280;8402;51.466;6.806;2023-07-13T13:30:53;101366.25;;;27.00;44.50